Thunder radar more information blitzortung!


Radar de pluja more information rain snow radar


Visita la nostra xarxa de llocs de meteo:

Template documentation
and downloads

And another site



No particular awareness of the weather is required.    There are no Weather-warnings

Pagina Historial Weather Underground text

Diari Resum Juny 7, 2017 Unitats:  Imperial    Mètric   Tant
« Previous Dia
SegĂźent Dia »
Diari Setmana Mensual Anual Personalitzada
  Maxima: Minima: Media:
Temperatura: 76.3 °F 62.8 °F 68.4 °F
Punt de rosada: 58.5 °F 47.5 °F 55 °F
Humitat: 81 % 51 % 63 %
Wind Speed: 10.4 mph 0 mph 4.1 mph
RĂ fegues de vent: 10.4 mph - -
Vent:- - SSW
Pression baro: 30.2 in 30.1 in -
Precipitacions: 0 in    
Historical Graphs
 
 
Dades de taula per Juny 7, 2017
Temps Temperatura Punt de rosada Pression baro Vent Wind Speed RĂ fegues de vent Humitat Rainfall Rate (Hourly)
00:03 66.2 °F 57.4 °F 30.1 in SSE 2.3 mph 2.3 mph 73 % 0 in
00:05 62.8 °F 56.5 °F 30.1 in SSW 2 mph 2 mph 80 % 0 in
00:08 66.2 °F 57.4 °F 30.1 in ESE 3.5 mph 3.5 mph 73 % 0 in
00:15 62.8 °F 56.5 °F 30.1 in SW 2 mph 4 mph 80 % 0 in
00:25 63 °F 57 °F 30.1 in SW 1 mph 2 mph 81 % 0 in
00:35 63 °F 57 °F 30.1 in SW 1 mph 2 mph 81 % 0 in
00:45 63.1 °F 57.2 °F 30.1 in SW 1 mph 3 mph 81 % 0 in
00:55 63.1 °F 57.2 °F 30.1 in SW 1 mph 3 mph 81 % 0 in
01:05 63.1 °F 57.2 °F 30.1 in SW 1 mph 1 mph 81 % 0 in
01:15 63.1 °F 57.2 °F 30.1 in SW 1 mph 3 mph 81 % 0 in
01:25 63.5 °F 57.6 °F 30.1 in SW 1 mph 2 mph 81 % 0 in
01:35 63.1 °F 56.1 °F 30.1 in WSW 2 mph 4 mph 78 % 0 in
01:45 63.1 °F 55 °F 30.1 in WSW 3 mph 4 mph 75 % 0 in
01:55 62.8 °F 53.2 °F 30.1 in West 1 mph 3 mph 71 % 0 in
02:05 63 °F 52.2 °F 30.1 in WNW 2 mph 4 mph 68 % 0 in
02:15 63.3 °F 52.2 °F 30.1 in WNW 3 mph 5 mph 67 % 0 in
02:25 63 °F 51.1 °F 30.1 in West 3 mph 4 mph 65 % 0 in
02:35 63 °F 50.5 °F 30.1 in West 2 mph 3 mph 64 % 0 in
02:45 63.9 °F 51.1 °F 30.2 in West 2 mph 2 mph 63 % 0 in
02:55 64.8 °F 51.4 °F 30.1 in West 2 mph 4 mph 62 % 0 in
03:05 64.4 °F 50.7 °F 30.1 in West 1 mph 5 mph 61 % 0 in
03:15 64.6 °F 50.4 °F 30.2 in West 2 mph 3 mph 60 % 0 in
03:25 64.8 °F 50.2 °F 30.2 in West 3 mph 4 mph 59 % 0 in
03:35 65.1 °F 50.4 °F 30.2 in West 2 mph 3 mph 59 % 0 in
03:45 65.3 °F 49.6 °F 30.2 in WSW 3 mph 3 mph 57 % 0 in
03:55 65.3 °F 48.7 °F 30.2 in West 5 mph 5 mph 55 % 0 in
04:05 65.1 °F 48 °F 30.2 in West 1 mph 3 mph 54 % 0 in
04:15 65.5 °F 48.4 °F 30.2 in West 1 mph 2 mph 54 % 0 in
04:25 65.7 °F 48 °F 30.2 in WSW 2 mph 2 mph 53 % 0 in
04:35 65.7 °F 48.6 °F 30.2 in Calm   2 mph 54 % 0 in
04:45 65.7 °F 48 °F 30.2 in WSW 1 mph 2 mph 53 % 0 in
04:55 66.2 °F 48 °F 30.2 in WSW 2 mph 3 mph 52 % 0 in
05:05 66.2 °F 47.5 °F 30.2 in SSW 1 mph 3 mph 51 % 0 in
05:15 66.9 °F 48.7 °F 30.2 in Calm   1 mph 52 % 0 in
05:25 66.9 °F 48.7 °F 30.2 in SSW 1 mph 4 mph 52 % 0 in
05:35 67.1 °F 49.5 °F 30.2 in Calm   1 mph 53 % 0 in
10:36 67.1 °F 49.5 °F 30.2 in South 2.4 mph 2.4 mph 53 % 0 in
10:41 66.6 °F 48.9 °F 30.2 in WSW 3.5 mph 3.5 mph 53 % 0 in
10:46 66.4 °F 49.3 °F 30.2 in WSW 2.3 mph 2.3 mph 54 % 0 in
10:51 66.4 °F 48.7 °F 30.2 in SSW 2.3 mph 2.3 mph 53 % 0 in
10:56 66.4 °F 49.3 °F 30.2 in SW 2.3 mph 2.3 mph 54 % 0 in
11:01 66.6 °F 49.5 °F 30.2 in SW 1.4 mph   54 % 0 in
11:06 66.4 °F 49.6 °F 30.2 in South 2.3 mph 2.3 mph 55 % 0 in
11:11 66 °F 49.8 °F 30.2 in SW 3.5 mph 3.5 mph 56 % 0 in
11:16 65.8 °F 50.2 °F 30.2 in SW 3.3 mph 3.3 mph 57 % 0 in
11:21 65.8 °F 50.2 °F 30.2 in SW 2.3 mph 2.3 mph 57 % 0 in
11:26 65.7 °F 50.5 °F 30.2 in SW 3.5 mph 3.5 mph 58 % 0 in
11:31 65.3 °F 51.1 °F 30.2 in SW 5.8 mph 5.8 mph 60 % 0 in
11:36 65.1 °F 51.3 °F 30.2 in SW 2.6 mph 2.9 mph 61 % 0 in
11:41 65.5 °F 52.2 °F 30.2 in SW 2.9 mph 2.9 mph 62 % 0 in
11:46 66.2 °F 52.9 °F 30.2 in SW 3.5 mph 3.5 mph 62 % 0 in
11:51 66.7 °F 53.8 °F 30.2 in SSE 2.2 mph 2.2 mph 63 % 0 in
11:56 67.1 °F 54.1 °F 30.2 in South 2.3 mph 2.3 mph 63 % 0 in
12:01 67.1 °F 54.5 °F 30.2 in SW 3.3 mph 3.3 mph 64 % 0 in
12:06 67.8 °F 54.9 °F 30.2 in SSE 2.3 mph 2.3 mph 63 % 0 in
12:11 66.7 °F 53.8 °F 30.2 in ESE 4.6 mph 4.6 mph 63 % 0 in
12:16 66.7 °F 53.8 °F 30.2 in NE 4 mph 4 mph 63 % 0 in
12:21 67.6 °F 54.1 °F 30.2 in NE 2.9 mph 2.9 mph 62 % 0 in
12:26 68.5 °F 54.7 °F 30.2 in NNE 5.6 mph 5.6 mph 61 % 0 in
12:31 68 °F 54 °F 30.2 in East 4.6 mph 4.6 mph 61 % 0 in
12:36 68.2 °F 54.7 °F 30.2 in ESE 4.6 mph 4.6 mph 62 % 0 in
12:41 67.8 °F 54.9 °F 30.2 in ESE 4.6 mph 4.6 mph 63 % 0 in
12:46 68.4 °F 55.2 °F 30.2 in ESE 3.8 mph 3.8 mph 63 % 0 in
12:51 68.4 °F 55.8 °F 30.2 in NE 3.5 mph 3.5 mph 64 % 0 in
12:56 68.4 °F 55.8 °F 30.2 in ESE 6 mph 6 mph 64 % 0 in
13:01 68.9 °F 56.7 °F 30.2 in ESE 5.9 mph 5.9 mph 65 % 0 in
13:06 68.2 °F 55.9 °F 30.2 in East 10 mph 10 mph 65 % 0 in
13:11 68.5 °F 56.3 °F 30.2 in NNE 6.9 mph 6.9 mph 65 % 0 in
13:16 68.9 °F 56.7 °F 30.2 in SE 6.9 mph 6.9 mph 65 % 0 in
13:21 68.7 °F 56.5 °F 30.2 in ENE 4.6 mph 4.6 mph 65 % 0 in
13:26 68.9 °F 56.7 °F 30.2 in SSE 6.9 mph 6.9 mph 65 % 0 in
13:31 68.4 °F 56.1 °F 30.2 in East 8.1 mph 8.1 mph 65 % 0 in
13:36 68.2 °F 55.9 °F 30.1 in SSE 6.9 mph 6.9 mph 65 % 0 in
13:41 68.4 °F 56.7 °F 30.1 in ESE 6.9 mph 6.9 mph 66 % 0 in
13:47 68 °F 56.1 °F 30.1 in East 6.9 mph 6.9 mph 66 % 0 in
13:52 68.2 °F 56.8 °F 30.1 in East 4 mph 4 mph 67 % 0 in
13:57 68.4 °F 56.7 °F 30.1 in SW 3.5 mph 3.5 mph 66 % 0 in
14:02 69.1 °F 57.2 °F 30.1 in South 3.5 mph 3.5 mph 66 % 0 in
14:07 69.8 °F 57.6 °F 30.1 in ESE 4 mph 4 mph 65 % 0 in
14:12 70.2 °F 57.7 °F 30.1 in South 2.3 mph 2.3 mph 65 % 0 in
14:17 71.4 °F 58.3 °F 30.1 in ESE 8.1 mph 8.1 mph 63 % 0 in
14:22 72 °F 57.4 °F 30.1 in SW 10.4 mph 10.4 mph 60 % 0 in
14:27 72.5 °F 57.4 °F 30.1 in South 3.5 mph 3.5 mph 59 % 0 in
14:32 73.4 °F 58.3 °F 30.1 in SW 5.8 mph 5.8 mph 59 % 0 in
14:37 73.6 °F 58.5 °F 30.1 in SSW 3.5 mph 3.5 mph 59 % 0 in
14:42 73.8 °F 57.6 °F 30.1 in SSW 6.9 mph 6.9 mph 57 % 0 in
14:43 73.9 °F 57.7 °F 30.1 in SW 5.8 mph 5.8 mph 57 % 0 in
14:48 74.7 °F 57.9 °F 30.1 in SW 7.8 mph 7.8 mph 56 % 0 in
14:53 73.9 °F 56.8 °F 30.1 in WSW 6.9 mph 6.9 mph 55 % 0 in
14:58 73.2 °F 56.1 °F 30.1 in SW 7.6 mph 7.6 mph 55 % 0 in
15:03 73.4 °F 56.1 °F 30.1 in SSW 5.8 mph 5.8 mph 55 % 0 in
15:08 75 °F 57.2 °F 30.1 in West 3.5 mph 3.5 mph 54 % 0 in
15:13 75.9 °F 57.6 °F 30.1 in SW 5.8 mph 5.8 mph 53 % 0 in
15:18 76.3 °F 57.9 °F 30.1 in South 5.8 mph 5.8 mph 53 % 0 in
15:23 75.4 °F 56.5 °F 30.1 in South 2.3 mph 2.4 mph 52 % 0 in
15:28 75 °F 56.1 °F 30.1 in South 8.1 mph 8.1 mph 52 % 0 in
15:33 75.2 °F 56.8 °F 30.1 in SW 4.6 mph 4.6 mph 53 % 0 in
15:38 75 °F 56.7 °F 30.1 in SW 5.8 mph 5.8 mph 53 % 0 in
15:43 73.9 °F 55.8 °F 30.1 in North 3.5 mph 3.5 mph 53 % 0 in
15:48 73.9 °F 55.8 °F 30.1 in South 4.6 mph 4.6 mph 53 % 0 in
15:53 73.6 °F 55.4 °F 30.1 in SSE 5.8 mph 5.8 mph 53 % 0 in
15:58 74.3 °F 56.1 °F 30.1 in SW 8.1 mph 8.1 mph 53 % 0 in
16:03 73.8 °F 55.6 °F 30.1 in SW 6.9 mph 6.9 mph 53 % 0 in
16:08 74.7 °F 56.5 °F 30.1 in WSW 8.1 mph 8.1 mph 53 % 0 in
16:13 74.7 °F 56.5 °F 30.1 in SW 5.8 mph 5.8 mph 53 % 0 in
16:18 73.8 °F 55.6 °F 30.1 in WSW 5.8 mph 5.8 mph 53 % 0 in
16:23 74.3 °F 56.1 °F 30.1 in WSW 6.9 mph 6.9 mph 53 % 0 in
16:28 73.8 °F 55.6 °F 30.1 in South 5.8 mph 5.8 mph 53 % 0 in
16:33 73 °F 55.4 °F 30.1 in WSW 6.9 mph 6.9 mph 54 % 0 in
16:38 73 °F 55.4 °F 30.1 in SW 8.1 mph 8.1 mph 54 % 0 in
16:43 73.4 °F 55.8 °F 30.1 in SW 9.2 mph 9.2 mph 54 % 0 in
16:48 73 °F 55.9 °F 30.1 in SW 3.6 mph 3.6 mph 55 % 0 in
16:53 72.9 °F 55.8 °F 30.1 in SW 6.9 mph 6.9 mph 55 % 0 in
16:58 72.9 °F 55.8 °F 30.1 in SSE 8.1 mph 8.1 mph 55 % 0 in
17:03 75.4 °F 57.6 °F 30.1 in WNW 4.6 mph 4.6 mph 54 % 0 in
17:08 74.8 °F 57 °F 30.1 in WSW 8.1 mph 8.1 mph 54 % 0 in
17:13 73.4 °F 55.8 °F 30.1 in SW 9.2 mph 9.2 mph 54 % 0 in
17:18 72.7 °F 55.6 °F 30.1 in WNW 6.9 mph 6.9 mph 55 % 0 in
17:23 72.3 °F 55.8 °F 30.1 in SW 7.6 mph 7.6 mph 56 % 0 in
17:28 72 °F 55.4 °F 30.1 in SSW 7.8 mph 7.8 mph 56 % 0 in
17:33 71.8 °F 55.8 °F 30.1 in SW 4.6 mph 4.6 mph 57 % 0 in
17:38 72 °F 55.9 °F 30.1 in SSW 6.9 mph 6.9 mph 57 % 0 in
17:43 72 °F 55.9 °F 30.1 in SSW 5.8 mph 5.8 mph 57 % 0 in
17:48 72.1 °F 56.1 °F 30.1 in South 5.8 mph 5.8 mph 57 % 0 in
17:53 72.1 °F 56.1 °F 30.1 in South 4.6 mph 4.6 mph 57 % 0 in
17:58 72.7 °F 56.7 °F 30.1 in SSW 4.6 mph 4.6 mph 57 % 0 in
18:03 73 °F 56.8 °F 30.1 in South 9.2 mph 9.2 mph 57 % 0 in
18:08 72.9 °F 56.7 °F 30.1 in SW 5.8 mph 5.8 mph 57 % 0 in
18:13 72.5 °F 56.5 °F 30.1 in SSW 10.4 mph 10.4 mph 57 % 0 in
18:14 72.5 °F 56.5 °F 30.1 in WSW 6.9 mph 6.9 mph 57 % 0 in
18:19 72.7 °F 56.7 °F 30.1 in WSW 8.1 mph 8.1 mph 57 % 0 in
18:24 73 °F 56.8 °F 30.1 in SSW 5.4 mph 5.4 mph 57 % 0 in
18:29 73 °F 56.8 °F 30.1 in SSW 6.9 mph 6.9 mph 57 % 0 in
18:34 73.2 °F 57 °F 30.1 in WSW 6.9 mph 6.9 mph 57 % 0 in
18:39 72.9 °F 56.7 °F 30.1 in SW 3.5 mph 3.5 mph 57 % 0 in
18:44 72.3 °F 56.1 °F 30.1 in WSW 8.1 mph 8.1 mph 57 % 0 in
18:49 72.5 °F 56.8 °F 30.1 in SSW 3.8 mph 3.8 mph 58 % 0 in
18:54 72.1 °F 56.5 °F 30.1 in SW 3.5 mph 3.6 mph 58 % 0 in
18:59 71.1 °F 55.9 °F 30.1 in SSW 5.8 mph 5.8 mph 59 % 0 in
19:04 70.7 °F 55.8 °F 30.1 in SW 5.8 mph 5.8 mph 59 % 0 in
19:09 70.2 °F 55.6 °F 30.1 in SW 8.1 mph 8.1 mph 60 % 0 in
19:14 69.4 °F 55.4 °F 30.1 in SSW 6.9 mph 6.9 mph 61 % 0 in
19:19 69.4 °F 55.4 °F 30.1 in SW 6 mph 6 mph 61 % 0 in
19:24 69.6 °F 55.9 °F 30.1 in SW 7.4 mph 7.4 mph 62 % 0 in
19:29 69.4 °F 55.9 °F 30.1 in SW 4.6 mph 4.6 mph 62 % 0 in
19:34 69.4 °F 55.9 °F 30.1 in SW 6.9 mph 6.9 mph 62 % 0 in
19:39 69.4 °F 56.3 °F 30.1 in SW 3.5 mph 3.5 mph 63 % 0 in
19:44 69.4 °F 56.3 °F 30.1 in SW 8.1 mph 8.1 mph 63 % 0 in
19:49 69.3 °F 56.1 °F 30.1 in SW 4.6 mph 4.6 mph 63 % 0 in
19:54 69.3 °F 56.1 °F 30.1 in SW 4.6 mph 4.6 mph 63 % 0 in
19:59 69.3 °F 56.1 °F 30.1 in SW 4.6 mph 4.6 mph 63 % 0 in
20:04 68.9 °F 56.1 °F 30.1 in SW 3.8 mph 3.8 mph 64 % 0 in
20:05 68.9 °F 56.1 °F 30.1 in SSE 3.5 mph 3.5 mph 64 % 0 in
20:10 68.7 °F 55.9 °F 30.1 in WSW 3.8 mph 3.8 mph 64 % 0 in
20:15 68.5 °F 55.9 °F 30.1 in SW 5.8 mph 5.8 mph 64 % 0 in
20:20 68.5 °F 55.9 °F 30.1 in SW 3.5 mph 3.5 mph 64 % 0 in
20:25 68.4 °F 55.8 °F 30.1 in SSW 4.6 mph 4.6 mph 64 % 0 in
20:30 68.2 °F 55.9 °F 30.1 in South 4.6 mph 4.6 mph 65 % 0 in
20:35 68.2 °F 55.9 °F 30.1 in SW 5.8 mph 5.8 mph 65 % 0 in
20:40 68 °F 55.8 °F 30.1 in WSW 3.5 mph 3.5 mph 65 % 0 in
20:45 68 °F 55.8 °F 30.1 in SSW 2.3 mph   65 % 0 in
20:50 68 °F 56.1 °F 30.1 in SW 1.6 mph   66 % 0 in
20:55 68 °F 55.8 °F 30.1 in SW 3.5 mph 3.5 mph 65 % 0 in
21:00 67.8 °F 55.9 °F 30.1 in SSW 3.5 mph 3.5 mph 66 % 0 in
21:05 67.5 °F 55.8 °F 30.1 in SSW 4.6 mph 4.6 mph 66 % 0 in
21:10 67.3 °F 55.9 °F 30.1 in WSW 5.8 mph 5.8 mph 67 % 0 in
21:15 67.1 °F 55.8 °F 30.1 in SW 3.5 mph 3.5 mph 67 % 0 in
21:20 66.7 °F 55.8 °F 30.1 in WSW 3.5 mph 3.5 mph 68 % 0 in
21:25 66.6 °F 55.8 °F 30.1 in SW 2.3 mph 2.3 mph 68 % 0 in
21:30 66.4 °F 55.6 °F 30.1 in SSW 3.5 mph 3.5 mph 68 % 0 in
21:35 66 °F 55.9 °F 30.1 in SSW 4.6 mph 4.6 mph 70 % 0 in
21:40 65.8 °F 55.8 °F 30.1 in SW 2.3 mph 2.3 mph 70 % 0 in
21:45 65.7 °F 55.6 °F 30.1 in WSW 2.4 mph 2.4 mph 70 % 0 in
21:50 65.5 °F 55.8 °F 30.1 in WSW 3.5 mph 3.5 mph 71 % 0 in
21:55 65.5 °F 55.8 °F 30.1 in SW 2.3 mph 2.3 mph 71 % 0 in
22:00 65.3 °F 55.9 °F 30.1 in SW 1.4 mph 1.4 mph 72 % 0 in
22:05 65.3 °F 55.9 °F 30.1 in WSW 2.3 mph 2.3 mph 72 % 0 in
22:10 65.1 °F 55.9 °F 30.1 in SW 2.3 mph 2.3 mph 72 % 0 in
22:15 65.1 °F 56.1 °F 30.1 in SW 1.6 mph   73 % 0 in
22:20 64.9 °F 56.1 °F 30.1 in SW 2.3 mph 2.3 mph 73 % 0 in
22:23 64.9 °F 56.1 °F 30.1 in SW 3.5 mph 3.5 mph 73 % 0 in
22:28 64.9 °F 56.1 °F 30.1 in SW 1.2 mph 1.2 mph 73 % 0 in
22:33 64.8 °F 56.3 °F 30.1 in WSW 1.2 mph   74 % 0 in
22:38 64.8 °F 56.3 °F 30.1 in SW 1.2 mph 1.2 mph 74 % 0 in
22:43 64.8 °F 56.3 °F 30.1 in SW 1.2 mph   74 % 0 in
22:48 64.6 °F 56.1 °F 30.1 in SSW 1.2 mph 1.2 mph 74 % 0 in
22:53 64.4 °F 55.9 °F 30.1 in WSW 1.6 mph 1.6 mph 74 % 0 in
22:58 64.4 °F 56.3 °F 30.1 in WSW 2 mph 2 mph 75 % 0 in
23:03 64.4 °F 56.3 °F 30.1 in WSW 2.3 mph 2.3 mph 75 % 0 in
23:08 64.2 °F 56.1 °F 30.1 in WSW 1.2 mph 1.2 mph 75 % 0 in
23:13 64.2 °F 56.1 °F 30.1 in SW 2.3 mph 2.3 mph 75 % 0 in
23:18 64.2 °F 56.1 °F 30.1 in West 2.3 mph 2.3 mph 75 % 0 in
23:23 64 °F 56.3 °F 30.1 in WSW 2.3 mph 2.3 mph 76 % 0 in
23:28 64 °F 56.3 °F 30.1 in WSW 2.3 mph 2.3 mph 76 % 0 in
23:33 63.9 °F 56.1 °F 30.1 in WSW 1.2 mph   76 % 0 in
23:38 63.9 °F 56.1 °F 30.1 in WSW 2.3 mph 2.3 mph 76 % 0 in
23:43 63.9 °F 56.5 °F 30.1 in WSW 1.2 mph 1.2 mph 77 % 0 in
23:48 63.7 °F 56.3 °F 30.1 in SW 1.2 mph   77 % 0 in
23:53 63.9 °F 56.5 °F 30.1 in SW 1.2 mph   77 % 0 in
23:58 63.9 °F 56.8 °F 30.1 in WSW 1.6 mph 1.6 mph 78 % 0 in
Meteo Sesrovires
Elogis d' Weather Underground - 3.5 mb

Guio original per  Jim McMurry - jmcmurry@mwt.net Adaptat per a la plantilla per  Wim van der Kuil - Leuven-Template.eu

Trobareu la nostra informacio del temps tambe a:

Weather Underground

AWEKAS